Ulsteinvik  Ulsteinvik


Beaufortskalaen  Beaufortskalaen


Clouds and precipitation  Clouds and precipitation


Nedbørsradar more information rain snow radar


Ingen spesiell oppmerksomhet om været er nødvendig.    Det er ingen advarsler

Nære METAR rapporter

   
ENAL - Ålesund
oppdatert: 18-04-2021 05:20
Klart  
Klart  
   Vind: SSØ 4.6 m/s
Vind: SSØ 4.6 m/s
Temperatur: 5°C
Wind Chill: 2°C
Duggpunkt: -3°C
Fuktighet: 57%
Barometer: 1028 hPa
Skyer: Klart
Sikt: More than 10 km
Skydetaljer: Klart
ENAL 180320Z AUTO 16009KT 9999 NCD 05/M03 Q1028
ENOV - Ørsta
oppdatert: 17-04-2021 10:50
Ikkje oppdatert
Klart  
Klart  
   Vind: varierer 0.5 m/s
Vind: varierer 0.5 m/s
Temperatur: 8°C
Duggpunkt: -3°C
Fuktighet: 46%
Barometer: 1033 hPa
Sikt: More than 10 km
Skydetaljer: Klart
ENOV 170850Z VRB01KT CAVOK 08/M03 Q1033 RMK WIND 2175FT 13009KT
ENML - Tafjorden
oppdatert: 18-04-2021 05:20
Klart  
Klart  
   Vind: NØ 3.1 m/s
Vind: NØ 3.1 m/s
Temperatur: 0°C
Wind Chill: -3°C
Duggpunkt: -4°C
Fuktighet: 75%
Barometer: 1029 hPa
Skyer: Klart
Sikt: 10 km
Skydetaljer: Klart
ENML 180320Z AUTO 04006KT 9999NDV NCD 00/M04 Q1029
ENML - Molde
oppdatert: 18-04-2021 05:20
Klart  
Klart  
   Vind: NØ 3.1 m/s
Vind: NØ 3.1 m/s
Temperatur: 0°C
Wind Chill: -3°C
Duggpunkt: -4°C
Fuktighet: 75%
Barometer: 1029 hPa
Skyer: Klart
Sikt: 10 km
Skydetaljer: Klart
ENML 180320Z AUTO 04006KT 9999NDV NCD 00/M04 Q1029
ENFL - Florø
oppdatert: 18-04-2021 05:20
Klart  
Klart  
   Vind: Øst 3.1 m/s
Vind: Øst 3.1 m/s
Temperatur: 7°C
Wind Chill: 5°C
Duggpunkt: 1°C
Fuktighet: 66%
Barometer: 1028 hPa
Skyer: Klart
Sikt: 10 km
Skydetaljer: Klart
ENFL 180320Z AUTO 09006KT 9999NDV NCD 07/01 Q1028
ENVA - Trondheim
oppdatert: 18-04-2021 05:20
Klart  
Klart  
   Vind: varierer 1 m/s
Vind: varierer 1 m/s
Temperatur: 2°C
Duggpunkt: -2°C
Fuktighet: 75%
Barometer: 1030 hPa
Sikt: More than 10 km
Skydetaljer: Klart
ENVA 180320Z VRB02KT CAVOK 02/M02 Q1030 RMK WIND 670FT 15008KT
ENBR - Bergen
oppdatert: 18-04-2021 05:20
Klart  
Klart  
   Vind: varierer 0.5 m/s
Vind: varierer 0.5 m/s
Temperatur: 3°C
Duggpunkt: -1°C
Fuktighet: 75%
Barometer: 1028 hPa
Sikt: More than 10 km
Skydetaljer: Klart
ENBR 180320Z VRB01KT CAVOK 03/M01 Q1028 RMK WIND 1200FT 13007KT
ENZV - Stavanger
oppdatert: 18-04-2021 04:50
Klart  
Klart  
   Vind: varierer 1 m/s
Vind: varierer 1 m/s
Temperatur: 2°C
Duggpunkt: -1°C
Fuktighet: 81%
Barometer: 1028 hPa
Sikt: More than 10 km
Skydetaljer: Klart
ENZV 180250Z VRB02KT CAVOK 02/M01 Q1028
ENGM - Oslo
oppdatert: 18-04-2021 05:20
Klart  
Klart  
   Vind: Nord 2.1 m/s
Vind: Nord 2.1 m/s
Temperatur: -1°C
Wind Chill: -4°C
Duggpunkt: -4°C
Fuktighet: 80%
Barometer: 1031 hPa
Sikt: More than 10 km
Skydetaljer: Klart
ENGM 180320Z 01004KT CAVOK M01/M04 Q1031
ESSA - Stockholm
oppdatert: 18-04-2021 05:20
Klart  
Klart  
   Vind: Nord 2.6 m/s
Vind: Nord 2.6 m/s
Temperatur: -1°C
Wind Chill: -4°C
Duggpunkt: -2°C
Fuktighet: 93%
Barometer: 1029 hPa
Sikt: More than 10 km
Skydetaljer: Klart
ESSA 180320Z 01005KT CAVOK M01/M02 Q1029 R88/09//95 NOSIG
EKCH - København
oppdatert: 18-04-2021 05:20
Klart  
Klart  
   Vind: NØ 4.6 m/s
Vind: NØ 4.6 m/s
Temperatur: 5°C
Wind Chill: 2°C
Duggpunkt: 0°C
Fuktighet: 70%
Barometer: 1024 hPa
Skyer: Klart
Sikt: More than 10 km
Skydetaljer: Klart
EKCH 180320Z AUTO 04009KT 9999 NCD 05/M00 Q1024 NOSIG
ENHV - Nordkapp
oppdatert: 16-04-2021 21:20
Ikkje oppdatert
Nedbør, For det meste skyet  
Nedbør, For det meste skyet  
   Vind: VSV 15.9 m/s<br />Gust to 15.9 m/s
Vind: VSV 15.9 m/s
Gust to 15.9 m/s
Temperatur: 5°C
Wind Chill: -2°C
Duggpunkt: 2°C
Fuktighet: 81%
Barometer: 1026 hPa
Skyer: For det meste skyet
Sikt: More than 10 km
Skydetaljer: Delvis Skyet 518.2 m,
For det meste skyet 640.1 m
ENHV 161920Z 24031G48KT 9999 RA SCT017 BKN021 05/02 Q1026
ENSB - Svalbard
oppdatert: 18-04-2021 04:50
Delvis Skyet  
Delvis Skyet  
   Vind: varierer 1.5 m/s
Vind: varierer 1.5 m/s
Temperatur: -2°C
Wind Chill: -4°C
Duggpunkt: -5°C
Fuktighet: 80%
Barometer: 1011 hPa
Skyer: Delvis Skyet
Sikt: More than 10 km
Skydetaljer: Delvis Skyet 883.9 m
ENSB 180250Z VRB03KT 9999 SCT029 M02/M05 Q1011 RMK WIND 1400FT 23014KT
NZSP - Sørpolen
oppdatert: 18-04-2021 01:50
Ikkje oppdatert
iskrystaller, Blowing, Snø, Klart  
iskrystaller, Blowing, Snø, Klart  
   Vind: Øst 7.2 m/s
Vind: Øst 7.2 m/s
Temperatur: -52°C
Wind Chill: -73°C
Barometer: 964.8 hPa
Skyer: Klart
Sikt: 1.2 km
Skydetaljer: Klart
NZSP 172350Z 08014KT 1200 IC BLSN SKC M52/ A2849 RMK SKWY WNDS ESTMD CLN AIR 10009KT ALL WNDS GRID
 

Script utviklet av  Saratoga-weather.org Tilrettelagt for malen av  Weerstation Leuven

Utstyr vi bruker:

Værstsjon
Davis VP2+ 24/H Fars, Online-Ups, 4G Backup.

Værprogram
Weather Display

Ekstra utstyr
Custom builds pcs

Provider
Hosted By Pro Isp

Davis VP2+ 24/H Fars, Online-Ups, 4G Backup.

Weather Display

Custom builds pcs

Hosted By Pro Isp